Time;durP1;ratioP1;P1;durP2;ratioP2;P2;SDS_P1;SDS_P2;PMS_P1;PMS_P2;Temp;Humidity;BMP_temperature;BMP_pressure;BME280_temperature;BME280_humidity;BME280_pressure;Samples;Min_cycle;Max_cycle;Signal;HPM_P1;HPM_P2
2022/06/06 00:01:43;;;;;;;;;;;;;;;11.78;72.99;100850.51;84823;1326;25529;-71
2022/06/06 00:03:49;;;;;;;;;;;;;;;11.74;73.17;100845.58;84883;1326;23939;-71
2022/06/06 00:05:55;;;;;;;;;;;;;;;11.70;73.10;100846.58;84838;1326;22574;-71
2022/06/06 00:08:01;;;;;;;;;;;;;;;11.66;73.28;100844.79;84795;1326;22569;-71
2022/06/06 00:10:10;;;;;;;;;;;;;;;11.63;73.19;100845.06;84813;1325;22576;-72
2022/06/06 00:12:16;;;;;;;;;;;;;;;11.61;73.21;100845.30;84810;1325;22570;-71
2022/06/06 00:14:22;;;;;;;;;;;;;;;11.60;73.31;100843.59;84810;1326;22558;-71
2022/06/06 00:16:28;;;;;;;;;;;;;;;11.59;73.39;100838.92;84741;1329;22615;-71
2022/06/06 00:18:35;;;;;;;;;;;;;;;11.59;73.48;100836.15;84782;1329;22591;-71
2022/06/06 00:20:41;;;;;;;;;;;;;;;11.59;73.57;100835.59;84811;1328;22733;-71
2022/06/06 00:22:47;;;;;;;;;;;;;;;11.60;73.41;100830.48;84773;1325;22573;-71
2022/06/06 00:24:54;;;;;;;;;;;;;;;11.61;73.62;100825.73;84788;1326;22616;-71
2022/06/06 00:27:00;;;;;;;;;;;;;;;11.62;73.82;100820.46;84563;1325;319489;-71
2022/06/06 00:29:06;;;;;;;;;;;;;;;11.62;73.74;100815.92;84813;1326;25264;-71
2022/06/06 00:36:00;;;;;;;;;;;;;;;11.66;73.68;100802.52;84795;1329;22529;-72
2022/06/06 00:38:06;;;;;;;;;;;;;;;11.66;73.78;100801.80;84798;1326;24245;-71
2022/06/06 00:40:14;;;;;;;;;;;;;;;11.67;73.61;100801.42;84817;1325;22670;-71
2022/06/06 00:42:23;;;;;;;;;;;;;;;11.64;73.37;100804.14;84747;1324;22832;-72
2022/06/06 00:44:33;;;;;;;;;;;;;;;11.63;73.62;100805.77;84779;1327;22576;-71
2022/06/06 00:46:40;;;;;;;;;;;;;;;11.64;73.72;100803.27;84827;1326;25237;-71
2022/06/06 00:48:46;;;;;;;;;;;;;;;11.64;73.91;100804.50;84777;1326;22573;-72
2022/06/06 00:51:00;;;;;;;;;;;;;;;11.63;73.78;100800.70;84786;1325;22618;-70
2022/06/06 00:53:06;;;;;;;;;;;;;;;11.62;73.82;100796.70;84803;1326;22850;-71
2022/06/06 00:55:13;;;;;;;;;;;;;;;11.61;73.65;100796.20;84799;1329;22585;-71
2022/06/06 00:57:24;;;;;;;;;;;;;;;11.60;73.53;100797.13;84764;1329;22606;-72
2022/06/06 00:59:32;;;;;;;;;;;;;;;11.58;73.80;100793.70;84813;1324;24355;-72
2022/06/06 01:01:38;;;;;;;;;;;;;;;11.55;73.79;100788.74;84801;1329;22567;-71
2022/06/06 01:03:45;;;;;;;;;;;;;;;11.52;73.94;100788.33;84806;1327;22580;-71
2022/06/06 01:05:51;;;;;;;;;;;;;;;11.47;74.05;100786.04;84801;1327;24325;-72
2022/06/06 01:07:57;;;;;;;;;;;;;;;11.44;74.15;100788.80;84788;1321;23008;-71
2022/06/06 01:10:03;;;;;;;;;;;;;;;11.40;74.18;100783.52;84797;1326;22582;-70
2022/06/06 01:12:10;;;;;;;;;;;;;;;11.36;74.15;100778.23;84788;1326;22564;-70
2022/06/06 01:14:18;;;;;;;;;;;;;;;11.33;74.28;100778.67;84791;1324;22564;-70
2022/06/06 01:16:29;;;;;;;;;;;;;;;11.30;74.49;100776.33;84821;1329;22524;-72
2022/06/06 01:18:44;;;;;;;;;;;;;;;11.26;74.52;100773.48;84805;1322;22581;-72
2022/06/06 01:21:01;;;;;;;;;;;;;;;11.22;74.72;100772.75;84808;1328;22890;-71
2022/06/06 01:23:21;;;;;;;;;;;;;;;11.20;74.98;100770.94;84795;1328;25227;-72
2022/06/06 01:25:42;;;;;;;;;;;;;;;11.18;75.09;100766.45;84803;1329;22588;-71
2022/06/06 01:27:55;;;;;;;;;;;;;;;11.17;75.18;100768.06;84804;1326;25401;-71
2022/06/06 01:30:03;;;;;;;;;;;;;;;11.16;75.39;100766.36;84801;1329;25380;-71
2022/06/06 01:32:11;;;;;;;;;;;;;;;11.16;75.69;100768.64;84804;1329;22585;-71
2022/06/06 01:34:22;;;;;;;;;;;;;;;11.15;75.51;100770.04;84795;1326;24216;-71
2022/06/06 01:36:30;;;;;;;;;;;;;;;11.16;75.84;100767.91;84843;1326;22577;-72
2022/06/06 01:38:37;;;;;;;;;;;;;;;11.17;75.88;100765.80;84811;1327;22645;-71
2022/06/06 01:40:45;;;;;;;;;;;;;;;11.17;75.95;100762.27;84814;1326;24272;-72
2022/06/06 01:42:56;;;;;;;;;;;;;;;11.17;75.96;100767.18;84757;1324;24407;-71
2022/06/06 01:45:05;;;;;;;;;;;;;;;11.17;75.99;100764.73;84797;1324;22578;-71
2022/06/06 01:47:12;;;;;;;;;;;;;;;11.18;76.17;100768.73;84798;1322;22929;-71
2022/06/06 01:49:18;;;;;;;;;;;;;;;11.21;76.41;100767.05;84825;1326;25512;-71
2022/06/06 01:51:30;;;;;;;;;;;;;;;11.22;76.38;100766.83;84769;1330;22722;-71
2022/06/06 01:53:38;;;;;;;;;;;;;;;11.21;76.27;100768.59;84807;1326;24240;-70
2022/06/06 01:55:47;;;;;;;;;;;;;;;11.21;76.36;100764.95;84796;1328;22523;-72
2022/06/06 01:57:54;;;;;;;;;;;;;;;11.20;76.39;100761.48;84785;1325;22568;-72
2022/06/06 02:00:00;;;;;;;;;;;;;;;11.21;76.81;100760.39;84803;1326;22594;-72
2022/06/06 02:02:06;;;;;;;;;;;;;;;11.24;76.73;100755.41;84809;1326;22636;-71
2022/06/06 02:04:12;;;;;;;;;;;;;;;11.28;76.89;100753.68;84802;1325;22573;-69
2022/06/06 02:06:18;;;;;;;;;;;;;;;11.30;77.02;100749.24;84766;1327;22570;-71
2022/06/06 02:08:24;;;;;;;;;;;;;;;11.33;77.21;100742.35;84806;1329;24357;-71
2022/06/06 02:10:30;;;;;;;;;;;;;;;11.37;77.13;100743.06;84793;1326;22743;-70
2022/06/06 02:12:36;;;;;;;;;;;;;;;11.41;76.90;100738.40;84816;1328;24238;-72
2022/06/06 02:14:42;;;;;;;;;;;;;;;11.44;76.99;100745.66;84794;1326;22940;-71
2022/06/06 02:16:49;;;;;;;;;;;;;;;11.43;76.84;100743.73;84787;1328;22618;-70
2022/06/06 02:18:54;;;;;;;;;;;;;;;11.45;77.18;100740.54;84792;1329;24338;-71
2022/06/06 02:21:01;;;;;;;;;;;;;;;11.48;77.22;100737.11;84774;1329;22953;-72
2022/06/06 02:23:07;;;;;;;;;;;;;;;11.49;76.90;100734.42;84816;1324;22649;-72
2022/06/06 02:25:14;;;;;;;;;;;;;;;11.50;77.12;100728.81;84801;1325;24291;-71
2022/06/06 02:27:20;;;;;;;;;;;;;;;11.51;77.10;100729.11;84801;1326;22558;-71
2022/06/06 02:29:27;;;;;;;;;;;;;;;11.50;76.99;100732.48;84804;1326;22582;-70
2022/06/06 02:31:37;;;;;;;;;;;;;;;11.50;76.86;100729.87;84793;1327;22566;-71
2022/06/06 02:33:44;;;;;;;;;;;;;;;11.49;77.00;100730.78;84784;1326;24229;-72
2022/06/06 02:35:50;;;;;;;;;;;;;;;11.47;77.20;100732.42;84816;1324;22591;-72
2022/06/06 02:37:56;;;;;;;;;;;;;;;11.44;77.19;100730.96;84807;1321;22589;-71
2022/06/06 02:40:02;;;;;;;;;;;;;;;11.43;77.29;100731.88;84810;1326;25418;-72
2022/06/06 02:42:09;;;;;;;;;;;;;;;11.41;77.48;100731.42;84807;1326;22831;-72
2022/06/06 02:44:14;;;;;;;;;;;;;;;11.39;77.42;100735.52;84784;1326;22670;-71
2022/06/06 02:46:21;;;;;;;;;;;;;;;11.36;77.45;100731.55;84798;1325;25408;-72
2022/06/06 02:48:26;;;;;;;;;;;;;;;11.34;77.71;100731.14;84819;1329;23041;-71
2022/06/06 02:50:33;;;;;;;;;;;;;;;11.33;77.89;100729.42;84802;1326;22593;-70
2022/06/06 02:52:39;;;;;;;;;;;;;;;11.34;78.06;100732.54;84773;1329;22577;-71
2022/06/06 02:54:45;;;;;;;;;;;;;;;11.34;77.88;100730.42;84794;1326;22710;-71
2022/06/06 02:56:51;;;;;;;;;;;;;;;11.35;78.07;100737.04;84791;1326;22562;-71
2022/06/06 02:58:57;;;;;;;;;;;;;;;11.35;78.35;100736.32;84813;1326;22575;-71
2022/06/06 03:01:05;;;;;;;;;;;;;;;11.37;78.34;100742.73;84811;1326;22565;-72
2022/06/06 03:03:12;;;;;;;;;;;;;;;11.39;78.45;100746.33;84838;1326;22647;-72
2022/06/06 03:05:18;;;;;;;;;;;;;;;11.42;78.66;100747.44;84755;1326;22878;-71
2022/06/06 03:07:28;;;;;;;;;;;;;;;11.44;78.72;100752.45;84793;1324;22589;-71
2022/06/06 03:09:39;;;;;;;;;;;;;;;11.49;79.00;100756.45;84778;1327;22572;-71
2022/06/06 03:11:53;;;;;;;;;;;;;;;11.55;79.00;100758.70;84812;1326;25415;-70
2022/06/06 03:14:10;;;;;;;;;;;;;;;11.62;78.92;100754.25;84807;1326;24281;-70
2022/06/06 03:21:21;;;;;;;;;;;;;;;11.86;79.16;100764.91;84790;1326;22578;-71
2022/06/06 03:23:39;;;;;;;;;;;;;;;11.96;79.34;100769.28;84799;1326;22561;-71
2022/06/06 03:25:47;;;;;;;;;;;;;;;12.18;79.20;100771.23;84814;1324;22654;-70
2022/06/06 03:27:57;;;;;;;;;;;;;;;12.64;79.26;100772.41;84817;1326;22561;-71
2022/06/06 03:30:07;;;;;;;;;;;;;;;13.21;78.73;100777.42;84815;1326;22582;-71
2022/06/06 03:32:17;;;;;;;;;;;;;;;13.90;77.62;100767.95;84796;1325;22676;-71
2022/06/06 03:34:27;;;;;;;;;;;;;;;14.57;76.46;100767.80;84816;1326;22580;-71
2022/06/06 03:36:35;;;;;;;;;;;;;;;15.32;76.10;100765.64;84802;1326;22591;-71
2022/06/06 03:38:47;;;;;;;;;;;;;;;16.15;74.60;100768.86;84783;1324;22751;-72
2022/06/06 03:40:57;;;;;;;;;;;;;;;16.90;72.94;100769.92;84835;1325;25259;-72
2022/06/06 03:43:14;;;;;;;;;;;;;;;17.71;71.68;100765.80;84771;1326;22594;-71
2022/06/06 03:45:22;;;;;;;;;;;;;;;18.62;70.14;100761.80;84784;1326;22671;-71
2022/06/06 03:47:36;;;;;;;;;;;;;;;19.45;67.72;100758.89;84788;1326;22581;-70
2022/06/06 03:49:49;;;;;;;;;;;;;;;20.20;65.31;100758.23;84819;1326;22557;-71
2022/06/06 03:52:04;;;;;;;;;;;;;;;20.87;62.70;100761.65;84808;1326;24180;-71
2022/06/06 03:54:19;;;;;;;;;;;;;;;21.53;60.08;100764.28;84784;1326;22565;-71
2022/06/06 03:56:33;;;;;;;;;;;;;;;22.20;57.58;100763.50;84784;1325;22607;-71
2022/06/06 03:58:39;;;;;;;;;;;;;;;22.81;56.56;100762.37;84787;1326;25236;-72
2022/06/06 04:00:45;;;;;;;;;;;;;;;23.26;53.84;100766.64;84806;1326;22609;-71
2022/06/06 04:02:51;;;;;;;;;;;;;;;23.71;52.35;100768.63;84781;1328;25413;-71
2022/06/06 04:04:58;;;;;;;;;;;;;;;24.19;51.09;100768.69;84791;1325;22553;-70
2022/06/06 04:07:05;;;;;;;;;;;;;;;24.66;49.52;100768.61;84793;1327;25283;-72
2022/06/06 04:09:11;;;;;;;;;;;;;;;25.14;48.55;100774.58;84804;1327;22589;-71
2022/06/06 04:11:26;;;;;;;;;;;;;;;25.41;46.96;100774.31;84820;1327;22557;-72
2022/06/06 04:13:39;;;;;;;;;;;;;;;25.73;45.77;100777.38;84797;1326;24345;-71
2022/06/06 04:15:52;;;;;;;;;;;;;;;26.08;44.96;100777.31;84782;1327;22951;-71
2022/06/06 04:18:12;;;;;;;;;;;;;;;26.46;43.26;100775.14;84815;1326;22643;-71
2022/06/06 04:20:23;;;;;;;;;;;;;;;26.83;42.56;100773.30;84808;1320;24453;-71
2022/06/06 04:22:35;;;;;;;;;;;;;;;27.32;41.83;100779.70;84816;1324;22915;-71
2022/06/06 04:24:48;;;;;;;;;;;;;;;27.62;40.50;100767.38;84819;1327;22513;-71
2022/06/06 04:26:59;;;;;;;;;;;;;;;27.71;39.82;100767.37;84798;1326;22549;-71
2022/06/06 04:29:10;;;;;;;;;;;;;;;27.85;39.12;100764.66;84805;1326;24209;-71
2022/06/06 04:31:19;;;;;;;;;;;;;;;28.01;39.18;100763.89;84808;1326;25422;-72
2022/06/06 04:33:34;;;;;;;;;;;;;;;28.20;38.34;100761.30;84818;1325;22581;-72
2022/06/06 04:35:44;;;;;;;;;;;;;;;28.02;38.30;100767.03;84798;1326;25412;-72
2022/06/06 04:37:53;;;;;;;;;;;;;;;27.75;38.50;100767.13;84804;1326;22576;-72
2022/06/06 04:40:01;;;;;;;;;;;;;;;27.28;38.40;100766.64;84817;1326;22699;-72
2022/06/06 04:42:10;;;;;;;;;;;;;;;26.94;38.63;100765.42;84792;1326;22562;-71
2022/06/06 04:44:20;;;;;;;;;;;;;;;26.88;39.39;100763.73;84814;1326;22585;-71
2022/06/06 04:46:30;;;;;;;;;;;;;;;27.07;39.25;100763.23;84801;1326;22653;-72
2022/06/06 04:48:36;;;;;;;;;;;;;;;27.28;38.61;100766.95;84800;1326;22525;-72
2022/06/06 04:50:43;;;;;;;;;;;;;;;27.56;38.60;100763.73;84829;1325;23953;-71
2022/06/06 04:52:52;;;;;;;;;;;;;;;27.88;38.45;100761.15;84817;1326;22594;-72
2022/06/06 04:54:58;;;;;;;;;;;;;;;28.25;37.98;100762.41;84816;1325;22580;-72
2022/06/06 04:57:05;;;;;;;;;;;;;;;28.46;37.32;100766.10;84821;1322;22560;-72
2022/06/06 04:59:13;;;;;;;;;;;;;;;28.74;37.40;100764.55;84801;1327;22644;-72
2022/06/06 05:01:19;;;;;;;;;;;;;;;29.16;37.51;100764.57;84791;1326;22557;-72
2022/06/06 05:03:25;;;;;;;;;;;;;;;29.51;36.13;100763.83;84752;1327;22583;-71
2022/06/06 05:05:35;;;;;;;;;;;;;;;29.76;35.07;100765.06;84802;1327;23728;-72
2022/06/06 05:07:53;;;;;;;;;;;;;;;30.09;34.86;100763.32;84779;1327;22645;-71
2022/06/06 05:10:05;;;;;;;;;;;;;;;30.48;33.16;100760.23;84801;1321;22569;-70
2022/06/06 05:12:19;;;;;;;;;;;;;;;30.52;33.68;100759.05;84813;1324;22569;-70
2022/06/06 05:14:32;;;;;;;;;;;;;;;31.00;33.65;100757.84;84787;1326;22565;-71
2022/06/06 05:16:48;;;;;;;;;;;;;;;31.39;32.06;100761.98;84788;1325;24264;-71
2022/06/06 05:19:14;;;;;;;;;;;;;;;31.39;31.41;100763.67;84777;1326;25207;-71
2022/06/06 05:21:36;;;;;;;;;;;;;;;31.57;31.51;100765.33;84775;1326;22575;-70
2022/06/06 05:23:54;;;;;;;;;;;;;;;31.84;30.54;100769.18;84807;1326;24560;-70
2022/06/06 05:26:09;;;;;;;;;;;;;;;32.02;30.46;100772.55;84790;1327;22592;-70
2022/06/06 05:28:28;;;;;;;;;;;;;;;32.30;30.28;100770.38;84813;1321;23033;-70
2022/06/06 05:30:37;;;;;;;;;;;;;;;32.47;29.38;100768.09;84810;1326;22859;-70
2022/06/06 05:33:01;;;;;;;;;;;;;;;32.54;29.30;100774.20;84819;1326;22579;-72
2022/06/06 05:35:12;;;;;;;;;;;;;;;32.44;29.10;100778.92;84794;1326;23366;-72
2022/06/06 05:37:28;;;;;;;;;;;;;;;32.33;28.99;100780.50;84787;1325;22524;-72
2022/06/06 05:39:48;;;;;;;;;;;;;;;32.18;28.75;100775.26;84771;1323;22616;-71
2022/06/06 05:42:03;;;;;;;;;;;;;;;31.99;29.19;100776.52;84788;1327;22550;-71
2022/06/06 05:44:13;;;;;;;;;;;;;;;32.26;29.37;100777.97;84811;1325;22598;-73
2022/06/06 05:46:29;;;;;;;;;;;;;;;32.59;29.11;100781.52;84812;1326;22563;-73
2022/06/06 05:48:44;;;;;;;;;;;;;;;32.93;27.47;100783.11;84805;1325;24220;-73
2022/06/06 05:50:59;;;;;;;;;;;;;;;33.17;27.69;100776.25;84777;1327;25273;-72
2022/06/06 05:53:15;;;;;;;;;;;;;;;33.56;27.23;100775.02;84796;1325;24206;-72
2022/06/06 05:55:30;;;;;;;;;;;;;;;34.05;27.14;100772.30;84756;1322;22749;-72
2022/06/06 05:57:52;;;;;;;;;;;;;;;34.35;25.88;100774.00;84796;1326;22568;-72
2022/06/06 06:00:10;;;;;;;;;;;;;;;34.51;25.39;100767.73;84805;1326;22577;-75
2022/06/06 06:02:28;;;;;;;;;;;;;;;34.68;24.99;100767.48;84791;1326;22572;-72
2022/06/06 06:04:40;;;;;;;;;;;;;;;34.84;24.51;100762.55;84796;1326;23112;-72
2022/06/06 06:06:51;;;;;;;;;;;;;;;34.91;24.28;100761.85;84760;1326;25945;-72
2022/06/06 06:09:12;;;;;;;;;;;;;;;35.10;24.37;100761.42;84779;1326;22561;-72
2022/06/06 06:11:27;;;;;;;;;;;;;;;35.40;23.85;100760.89;84817;1328;25409;-72
2022/06/06 06:13:44;;;;;;;;;;;;;;;35.57;23.88;100757.88;84790;1325;24507;-72
2022/06/06 06:15:51;;;;;;;;;;;;;;;35.65;23.88;100754.54;84810;1326;22590;-72
2022/06/06 06:17:58;;;;;;;;;;;;;;;35.78;23.13;100750.36;84773;1330;22584;-72
2022/06/06 06:20:08;;;;;;;;;;;;;;;35.93;22.82;100745.01;84774;1326;24254;-72
2022/06/06 06:22:14;;;;;;;;;;;;;;;35.86;22.60;100743.71;84801;1325;24089;-72
2022/06/06 06:24:27;;;;;;;;;;;;;;;35.80;22.28;100745.41;84796;1326;22614;-72
2022/06/06 06:26:33;;;;;;;;;;;;;;;35.72;22.69;100742.01;84788;1326;25287;-72
2022/06/06 06:28:39;;;;;;;;;;;;;;;35.83;22.36;100751.27;84780;1326;22578;-72
2022/06/06 06:30:50;;;;;;;;;;;;;;;35.68;22.50;100756.52;84818;1326;22583;-72
2022/06/06 06:33:08;;;;;;;;;;;;;;;35.40;22.16;100758.59;84782;1326;22574;-72
2022/06/06 06:35:17;;;;;;;;;;;;;;;35.00;22.40;100755.60;84789;1324;22568;-73
2022/06/06 06:37:32;;;;;;;;;;;;;;;34.85;23.16;100751.55;84797;1326;22602;-72
2022/06/06 06:39:59;;;;;;;;;;;;;;;34.84;22.78;100747.62;84772;1326;22556;-73
2022/06/06 06:42:13;;;;;;;;;;;;;;;34.72;23.07;100747.40;84788;1326;22927;-71
2022/06/06 06:44:22;;;;;;;;;;;;;;;34.59;22.42;100747.22;84795;1326;22678;-72
2022/06/06 06:46:33;;;;;;;;;;;;;;;34.39;22.91;100745.73;84792;1326;22831;-71
2022/06/06 06:48:41;;;;;;;;;;;;;;;34.33;23.29;100747.42;84809;1327;22577;-72
2022/06/06 06:50:56;;;;;;;;;;;;;;;34.40;23.10;100747.14;84783;1326;22568;-72
2022/06/06 06:53:10;;;;;;;;;;;;;;;34.47;23.43;100751.52;84781;1327;22582;-72
2022/06/06 06:55:21;;;;;;;;;;;;;;;34.69;22.90;100748.33;84796;1326;25302;-72
2022/06/06 06:57:37;;;;;;;;;;;;;;;34.91;23.12;100752.24;84801;1324;22595;-72
2022/06/06 06:59:51;;;;;;;;;;;;;;;35.16;23.34;100757.70;84811;1325;22756;-72
2022/06/06 07:09:40;;;;;;;;;;;;;;;36.15;21.67;100749.14;84795;1325;22557;-72
2022/06/06 07:12:03;;;;;;;;;;;;;;;36.46;21.31;100748.27;84795;1326;22842;-72
2022/06/06 07:14:14;;;;;;;;;;;;;;;36.88;20.74;100741.27;84772;1325;22561;-72
2022/06/06 07:16:22;;;;;;;;;;;;;;;36.82;20.37;100744.52;84766;1326;25450;-72
2022/06/06 07:18:30;;;;;;;;;;;;;;;36.91;20.72;100741.02;84804;1325;22936;-72
2022/06/06 07:20:36;;;;;;;;;;;;;;;37.13;20.88;100742.98;84792;1326;22587;-72
2022/06/06 07:23:03;;;;;;;;;;;;;;;37.30;19.82;100742.20;84816;1324;22569;-72
2022/06/06 07:25:09;;;;;;;;;;;;;;;37.47;19.81;100742.42;84783;1326;24276;-72
2022/06/06 07:27:17;;;;;;;;;;;;;;;37.74;19.94;100744.06;84786;1322;22602;-72
2022/06/06 07:29:23;;;;;;;;;;;;;;;37.98;18.95;100744.46;84785;1326;22727;-72
2022/06/06 07:31:34;;;;;;;;;;;;;;;38.11;19.12;100742.54;84761;1326;22601;-72
2022/06/06 07:33:48;;;;;;;;;;;;;;;38.35;18.63;100745.79;84807;1327;23001;-71
2022/06/06 07:35:58;;;;;;;;;;;;;;;38.63;18.06;100742.42;84752;1326;23024;-72
2022/06/06 07:38:12;;;;;;;;;;;;;;;38.51;18.04;100739.84;84785;1326;22572;-72
2022/06/06 07:40:37;;;;;;;;;;;;;;;38.44;17.76;100747.73;84780;1326;22591;-72
2022/06/06 07:42:56;;;;;;;;;;;;;;;38.27;18.15;100742.64;84742;1326;23813;-72
2022/06/06 07:45:10;;;;;;;;;;;;;;;38.30;18.53;100736.36;84793;1326;23742;-72
2022/06/06 07:47:28;;;;;;;;;;;;;;;38.48;18.30;100728.27;84779;1326;22564;-71
2022/06/06 07:49:40;;;;;;;;;;;;;;;38.62;18.52;100723.48;84805;1326;22996;-71
2022/06/06 07:51:48;;;;;;;;;;;;;;;38.88;18.61;100728.35;84801;1326;22730;-70
2022/06/06 07:53:58;;;;;;;;;;;;;;;39.09;17.79;100724.54;84774;1328;22607;-71
2022/06/06 07:56:09;;;;;;;;;;;;;;;39.28;17.99;100716.69;84797;1326;22883;-71
2022/06/06 07:58:18;;;;;;;;;;;;;;;39.35;17.69;100717.34;84800;1324;22654;-72
2022/06/06 08:00:28;;;;;;;;;;;;;;;39.35;16.83;100713.63;84772;1326;25384;-71
2022/06/06 08:02:56;;;;;;;;;;;;;;;39.11;16.68;100710.89;84793;1326;22689;-71
2022/06/06 08:05:12;;;;;;;;;;;;;;;39.11;17.15;100714.38;84774;1326;24330;-71
2022/06/06 08:07:21;;;;;;;;;;;;;;;39.32;16.59;100716.56;84790;1326;25415;-71
2022/06/06 08:10:02;;;;;;;;;;;;;;;39.49;16.40;100714.58;84794;1326;22591;-71
2022/06/06 08:12:31;;;;;;;;;;;;;;;39.37;16.75;100722.19;84774;1324;24387;-74
2022/06/06 08:14:46;;;;;;;;;;;;;;;39.20;16.99;100712.30;84788;1325;25488;-72
2022/06/06 08:16:58;;;;;;;;;;;;;;;39.15;16.58;100712.58;84796;1324;22588;-71
2022/06/06 08:19:26;;;;;;;;;;;;;;;38.98;17.26;100710.83;84799;1326;23036;-71
2022/06/06 08:21:36;;;;;;;;;;;;;;;39.24;17.19;100709.15;84779;1326;22590;-71
2022/06/06 08:23:42;;;;;;;;;;;;;;;39.58;17.16;100708.98;84829;1325;25297;-71
2022/06/06 08:25:47;;;;;;;;;;;;;;;39.80;16.86;100706.65;84793;1326;22573;-71
2022/06/06 08:27:55;;;;;;;;;;;;;;;39.71;15.88;100710.78;84579;1329;298972;-76
2022/06/06 08:30:01;;;;;;;;;;;;;;;39.11;16.04;100716.66;84782;1324;24276;-72
2022/06/06 08:32:09;;;;;;;;;;;;;;;38.70;16.48;100709.55;84791;1324;22625;-72
2022/06/06 08:34:15;;;;;;;;;;;;;;;38.63;16.58;100709.06;84796;1326;22820;-71
2022/06/06 08:36:50;;;;;;;;;;;;;;;38.49;16.52;100703.57;84796;1325;22910;-71
2022/06/06 08:39:00;;;;;;;;;;;;;;;38.26;17.79;100708.34;84802;1322;22575;-71
2022/06/06 08:41:21;;;;;;;;;;;;;;;38.23;17.30;100709.70;84832;1325;25262;-71
2022/06/06 08:43:38;;;;;;;;;;;;;;;37.99;16.30;100713.09;84789;1326;22588;-71
2022/06/06 08:45:57;;;;;;;;;;;;;;;37.64;16.08;100703.96;84802;1329;23030;-71
2022/06/06 08:48:08;;;;;;;;;;;;;;;37.24;16.33;100708.20;84775;1325;22580;-72
2022/06/06 08:50:47;;;;;;;;;;;;;;;36.96;17.12;100708.42;84761;1325;22719;-71
2022/06/06 08:53:16;;;;;;;;;;;;;;;36.74;16.83;100707.96;84750;1326;22588;-71
2022/06/06 08:55:44;;;;;;;;;;;;;;;36.42;17.65;100704.11;84787;1326;22883;-71
2022/06/06 08:58:01;;;;;;;;;;;;;;;36.43;17.85;100700.31;84756;1327;22581;-71
2022/06/06 09:00:19;;;;;;;;;;;;;;;36.58;17.29;100708.58;84783;1326;26041;-71
2022/06/06 09:03:04;;;;;;;;;;;;;;;36.59;17.35;100706.02;84801;1326;22561;-71
2022/06/06 09:05:41;;;;;;;;;;;;;;;36.31;17.06;100705.51;84797;1324;22592;-71
2022/06/06 09:08:13;;;;;;;;;;;;;;;36.00;17.45;100705.39;84782;1326;22554;-71
2022/06/06 09:10:45;;;;;;;;;;;;;;;35.57;17.89;100701.97;84797;1326;22800;-71
2022/06/06 09:13:24;;;;;;;;;;;;;;;35.42;18.56;100701.36;84777;1326;22588;-70
2022/06/06 09:15:46;;;;;;;;;;;;;;;35.04;18.30;100698.61;84818;1326;22736;-70
2022/06/06 09:18:30;;;;;;;;;;;;;;;34.66;18.54;100702.98;84808;1327;22583;-70
2022/06/06 09:20:44;;;;;;;;;;;;;;;34.12;18.41;100701.41;84802;1325;22580;-71
2022/06/06 09:23:34;;;;;;;;;;;;;;;33.54;18.66;100698.65;84775;1326;22641;-71
2022/06/06 09:25:46;;;;;;;;;;;;;;;33.05;19.51;100702.73;84674;1325;22577;-71
2022/06/06 09:28:21;;;;;;;;;;;;;;;32.74;19.96;100692.14;84806;1325;22579;-72
2022/06/06 09:30:37;;;;;;;;;;;;;;;32.51;21.07;100687.23;84775;1325;24329;-70
2022/06/06 09:33:21;;;;;;;;;;;;;;;32.40;21.00;100686.32;84801;1326;22598;-71
2022/06/06 09:35:41;;;;;;;;;;;;;;;32.08;20.66;100680.29;84790;1326;22593;-71
2022/06/06 09:38:02;;;;;;;;;;;;;;;31.71;21.41;100679.48;84778;1327;22872;-71
2022/06/06 09:40:23;;;;;;;;;;;;;;;31.68;22.34;100682.06;84804;1325;24215;-71
2022/06/06 09:42:40;;;;;;;;;;;;;;;31.68;22.78;100674.96;84766;1327;25230;-71
2022/06/06 09:45:01;;;;;;;;;;;;;;;31.70;22.58;100676.69;84801;1325;22572;-71
2022/06/06 09:47:36;;;;;;;;;;;;;;;31.63;22.61;100674.89;84813;1326;22569;-71
2022/06/06 09:50:20;;;;;;;;;;;;;;;31.62;22.74;100671.23;84542;1331;25445;-71
2022/06/06 09:52:52;;;;;;;;;;;;;;;31.64;23.06;100669.29;84787;1325;22574;-76
2022/06/06 10:00:40;;;;;;;;;;;;;;;31.57;22.52;100666.90;84790;1326;22573;-75
2022/06/06 10:03:12;;;;;;;;;;;;;;;31.31;22.31;100665.41;84797;1326;25282;-76
2022/06/06 10:05:48;;;;;;;;;;;;;;;31.30;23.18;100659.37;84793;1322;22570;-77
2022/06/06 10:08:24;;;;;;;;;;;;;;;31.50;23.18;100659.86;84797;1327;22581;-72
2022/06/06 10:11:01;;;;;;;;;;;;;;;31.65;23.12;100657.09;84608;1329;22660;-72
2022/06/06 10:13:14;;;;;;;;;;;;;;;31.79;23.00;100651.34;84810;1326;22557;-72
2022/06/06 10:15:56;;;;;;;;;;;;;;;31.94;22.80;100643.48;84784;1326;22726;-72
2022/06/06 10:18:11;;;;;;;;;;;;;;;31.95;22.35;100641.91;84562;1333;22604;-72
2022/06/06 10:20:25;;;;;;;;;;;;;;;31.67;21.90;100645.18;84706;1326;24591;-72
2022/06/06 10:22:44;;;;;;;;;;;;;;;31.34;21.87;100641.66;84799;1327;22577;-72
2022/06/06 10:25:06;;;;;;;;;;;;;;;31.23;23.01;100638.04;84784;1328;25867;-72
2022/06/06 10:27:17;;;;;;;;;;;;;;;31.30;22.80;100642.65;84831;1326;22570;-72
2022/06/06 10:32:24;;;;;;;;;;;;;;;31.04;21.82;100637.59;84770;1327;22800;-73
2022/06/06 10:34:48;;;;;;;;;;;;;;;30.94;22.75;100629.30;84818;1326;24262;-73
2022/06/06 10:37:00;;;;;;;;;;;;;;;31.02;22.73;100623.34;84795;1326;22764;-73
2022/06/06 10:39:16;;;;;;;;;;;;;;;31.04;22.58;100621.26;84817;1324;22670;-73
2022/06/06 10:41:32;;;;;;;;;;;;;;;31.00;22.49;100613.26;84780;1326;23937;-72
2022/06/06 10:44:05;;;;;;;;;;;;;;;30.97;22.77;100607.64;84793;1325;25260;-72
2022/06/06 10:46:15;;;;;;;;;;;;;;;30.95;23.47;100606.39;84762;1321;22842;-73
2022/06/06 10:48:39;;;;;;;;;;;;;;;30.95;23.04;100607.64;84749;1327;22763;-73
2022/06/06 10:51:40;;;;;;;;;;;;;;;30.88;22.66;100610.98;84785;1327;25921;-73
2022/06/06 10:54:00;;;;;;;;;;;;;;;30.81;23.26;100614.84;84753;1326;22564;-72
2022/06/06 10:56:28;;;;;;;;;;;;;;;30.73;23.22;100604.48;84790;1324;22588;-72
2022/06/06 10:58:54;;;;;;;;;;;;;;;30.57;23.85;100603.52;84765;1326;22699;-72
2022/06/06 11:01:38;;;;;;;;;;;;;;;30.51;24.55;100598.11;84777;1326;22660;-72
2022/06/06 11:04:01;;;;;;;;;;;;;;;30.47;24.02;100596.05;84794;1326;22561;-72
2022/06/06 11:06:49;;;;;;;;;;;;;;;30.35;24.15;100598.95;84769;1325;23034;-72
2022/06/06 11:09:19;;;;;;;;;;;;;;;30.22;24.77;100596.79;84785;1327;22600;-72
2022/06/06 11:12:06;;;;;;;;;;;;;;;30.07;24.14;100588.17;84795;1326;22577;-74
2022/06/06 11:14:16;;;;;;;;;;;;;;;29.90;24.54;100583.80;84805;1325;22569;-75
2022/06/06 11:16:43;;;;;;;;;;;;;;;29.77;25.10;100583.48;84799;1325;22561;-73
2022/06/06 11:19:14;;;;;;;;;;;;;;;29.76;25.87;100577.36;84780;1326;22585;-73
2022/06/06 11:21:39;;;;;;;;;;;;;;;29.77;26.11;100575.59;84797;1326;22973;-74
2022/06/06 11:23:48;;;;;;;;;;;;;;;29.70;25.95;100575.77;84797;1326;23095;-74
2022/06/06 11:26:05;;;;;;;;;;;;;;;29.58;26.53;100575.53;84776;1325;25387;-74
2022/06/06 11:28:24;;;;;;;;;;;;;;;29.47;26.98;100578.72;84803;1326;22569;-74
2022/06/06 11:31:03;;;;;;;;;;;;;;;29.41;27.03;100576.56;84795;1326;22810;-75
2022/06/06 11:33:27;;;;;;;;;;;;;;;29.35;27.21;100574.91;84771;1325;24198;-74
2022/06/06 11:35:36;;;;;;;;;;;;;;;29.22;27.09;100573.27;84796;1326;22569;-75
2022/06/06 11:38:29;;;;;;;;;;;;;;;29.13;27.23;100575.84;84789;1325;24209;-76
2022/06/06 11:41:08;;;;;;;;;;;;;;;29.01;26.55;100571.43;84805;1327;23918;-76
2022/06/06 11:43:56;;;;;;;;;;;;;;;28.89;26.86;100573.08;84776;1324;22590;-76
2022/06/06 11:46:33;;;;;;;;;;;;;;;28.77;27.62;100576.72;84818;1325;22587;-71
2022/06/06 11:49:01;;;;;;;;;;;;;;;28.76;27.93;100566.27;84799;1324;22865;-71
2022/06/06 11:51:19;;;;;;;;;;;;;;;28.77;28.16;100571.12;84804;1326;22585;-71
2022/06/06 11:53:48;;;;;;;;;;;;;;;28.78;28.02;100566.51;84802;1326;22581;-71
2022/06/06 11:56:03;;;;;;;;;;;;;;;28.79;28.62;100565.70;84788;1326;22655;-74
2022/06/06 11:58:42;;;;;;;;;;;;;;;28.81;28.58;100567.27;84805;1327;22621;-73